createdAt,value
2019-02-12T00:00:43.821Z,2.40
2019-02-12T00:03:12.494Z,2.53
2019-02-12T00:05:40.980Z,2.60
2019-02-12T00:08:09.461Z,2.53
2019-02-12T00:10:38.137Z,2.40
2019-02-12T00:13:06.760Z,2.39
2019-02-12T00:15:35.237Z,2.46
2019-02-12T00:18:03.835Z,2.46
2019-02-12T00:20:32.462Z,2.43
2019-02-12T00:23:01.161Z,2.43
2019-02-12T00:25:29.688Z,2.38
2019-02-12T00:27:58.321Z,2.32
2019-02-12T00:30:26.830Z,2.34
2019-02-12T00:32:55.572Z,2.28
2019-02-12T00:35:24.195Z,2.34
2019-02-12T00:37:52.828Z,2.36
2019-02-12T00:40:21.349Z,2.26
2019-02-12T00:42:50.020Z,2.31
2019-02-12T00:45:26.647Z,2.49
2019-02-12T00:47:55.310Z,2.58
2019-02-12T00:50:23.805Z,2.63
2019-02-12T00:52:52.292Z,2.57
2019-02-12T00:55:20.950Z,2.67
2019-02-12T00:57:49.585Z,2.76
2019-02-12T01:00:18.205Z,2.75
2019-02-12T01:02:46.721Z,2.75
2019-02-12T01:05:15.341Z,2.76
2019-02-12T01:07:44.073Z,2.72
2019-02-12T01:10:12.758Z,2.67
2019-02-12T01:12:41.245Z,2.69
2019-02-12T01:15:12.801Z,2.71
2019-02-12T01:17:41.731Z,2.72
2019-02-12T01:20:13.267Z,2.78
2019-02-12T01:22:44.847Z,2.78
2019-02-12T01:25:13.712Z,2.79
2019-02-12T01:27:42.338Z,2.80
2019-02-12T01:30:13.993Z,2.81
2019-02-12T01:32:42.665Z,2.80
2019-02-12T01:35:11.286Z,2.94
2019-02-12T01:37:39.796Z,2.98
2019-02-12T01:40:11.279Z,2.94
2019-02-12T01:42:39.910Z,3.03
2019-02-12T01:45:10.222Z,3.03
2019-02-12T01:47:38.887Z,3.08
2019-02-12T01:50:09.927Z,3.10
2019-02-12T01:52:38.473Z,3.14
2019-02-12T01:55:07.130Z,3.07
2019-02-12T01:57:35.759Z,3.08
2019-02-12T02:00:10.028Z,3.11
2019-02-12T02:02:38.618Z,3.03
2019-02-12T02:05:09.346Z,2.98
2019-02-12T02:07:37.952Z,2.98
2019-02-12T02:10:09.984Z,3.07
2019-02-12T02:12:38.523Z,3.12
2019-02-12T02:15:09.941Z,3.04
2019-02-12T02:17:38.578Z,3.13
2019-02-12T02:20:10.006Z,2.98
2019-02-12T02:22:38.542Z,2.98
2019-02-12T02:25:09.753Z,3.02
2019-02-12T02:27:38.295Z,3.06
2019-02-12T02:30:09.795Z,3.09
2019-02-12T02:32:38.620Z,3.08
2019-02-12T02:35:07.512Z,3.06
2019-02-12T02:37:36.037Z,3.00
2019-02-12T02:40:06.459Z,3.03
2019-02-12T02:42:41.565Z,3.00
2019-02-12T02:45:12.598Z,3.13
2019-02-12T02:47:41.076Z,3.09
2019-02-12T02:50:10.703Z,2.99
2019-02-12T02:52:39.373Z,3.07
2019-02-12T02:55:09.285Z,3.04
2019-02-12T02:57:37.902Z,3.03
2019-02-12T03:00:11.391Z,2.88
2019-02-12T03:02:39.865Z,2.81
2019-02-12T03:05:10.985Z,2.72
2019-02-12T03:07:39.574Z,2.82
2019-02-12T03:10:10.085Z,2.78
2019-02-12T03:12:38.693Z,2.75
2019-02-12T03:15:09.557Z,2.69
2019-02-12T03:17:38.099Z,2.70
2019-02-12T03:20:13.083Z,2.80
2019-02-12T03:22:41.760Z,2.79
2019-02-12T03:25:10.984Z,2.79
2019-02-12T03:27:39.642Z,2.89
2019-02-12T03:30:14.346Z,2.83
2019-02-12T03:32:42.974Z,2.93
2019-02-12T03:35:11.769Z,2.96
2019-02-12T03:37:40.245Z,2.86
2019-02-12T03:40:10.970Z,2.92
2019-02-12T03:42:39.646Z,3.02
2019-02-12T03:45:10.667Z,3.04
2019-02-12T03:47:39.274Z,3.03
2019-02-12T03:50:10.150Z,2.99
2019-02-12T03:52:38.625Z,3.04
2019-02-12T03:55:10.177Z,2.99
2019-02-12T03:57:38.820Z,3.05
2019-02-12T04:00:15.689Z,2.95
2019-02-12T04:03:04.709Z,2.93
2019-02-12T04:05:33.922Z,2.86
2019-02-12T04:08:02.790Z,2.76
2019-02-12T04:10:31.410Z,2.72
2019-02-12T04:13:00.030Z,2.70
2019-02-12T04:15:28.661Z,2.69
2019-02-12T04:17:57.367Z,2.77
2019-02-12T04:20:26.009Z,2.76
2019-02-12T04:22:54.502Z,2.76
2019-02-12T04:25:23.421Z,2.80
2019-02-12T04:27:51.975Z,2.86
2019-02-12T04:30:20.589Z,2.86
2019-02-12T04:32:49.260Z,2.88
2019-02-12T04:35:17.749Z,2.95
2019-02-12T04:37:46.302Z,2.97
2019-02-12T04:40:14.960Z,3.02
2019-02-12T04:42:43.583Z,3.02
2019-02-12T04:45:12.383Z,3.05
2019-02-12T04:47:40.990Z,3.03
2019-02-12T04:50:14.417Z,3.08
2019-02-12T04:52:43.025Z,3.01
2019-02-12T04:55:12.490Z,2.88
2019-02-12T04:57:41.113Z,2.79
2019-02-12T05:00:16.887Z,2.81
2019-02-12T05:02:45.539Z,2.79
2019-02-12T05:05:14.266Z,2.75
2019-02-12T05:07:42.890Z,2.75
2019-02-12T05:10:21.048Z,2.74
2019-02-12T05:12:49.519Z,2.70
2019-02-12T05:15:18.142Z,2.65
2019-02-12T05:17:46.828Z,2.63
2019-02-12T05:20:15.643Z,2.61
2019-02-12T05:22:44.148Z,2.61
2019-02-12T05:25:13.297Z,2.72
2019-02-12T05:27:41.935Z,2.59
2019-02-12T05:30:12.533Z,2.57
2019-02-12T05:32:41.177Z,2.53
2019-02-12T05:35:09.825Z,2.55
2019-02-12T05:37:38.445Z,2.53
2019-02-12T05:40:09.444Z,2.53
2019-02-12T05:42:38.043Z,2.54
2019-02-12T05:45:12.318Z,2.53
2019-02-12T05:47:40.925Z,2.53
2019-02-12T05:50:14.309Z,2.58
2019-02-12T05:52:42.916Z,2.60
2019-02-12T05:55:11.761Z,2.66
2019-02-12T05:57:40.312Z,2.97
2019-02-12T06:00:15.393Z,3.19
2019-02-12T06:02:44.093Z,3.34
2019-02-12T06:05:15.590Z,3.48
2019-02-12T06:07:44.233Z,3.65
2019-02-12T06:10:12.904Z,3.96
2019-02-12T06:12:41.520Z,4.63
2019-02-12T06:15:10.081Z,5.26
2019-02-12T06:17:38.633Z,5.84
2019-02-12T06:20:08.163Z,6.41
2019-02-12T06:22:36.843Z,6.67
2019-02-12T06:25:07.955Z,6.91
2019-02-12T06:27:37.028Z,7.28
2019-02-12T06:30:08.838Z,7.88
2019-02-12T06:32:37.500Z,8.26
2019-02-12T06:35:08.430Z,8.44
2019-02-12T06:37:36.968Z,8.59
2019-02-12T06:40:10.888Z,7.86
2019-02-12T06:42:39.513Z,7.29
2019-02-12T06:45:12.770Z,6.53
2019-02-12T06:47:41.419Z,5.96
2019-02-12T06:50:14.217Z,5.65
2019-02-12T06:52:42.872Z,5.65
2019-02-12T06:55:11.933Z,5.64
2019-02-12T06:57:40.415Z,5.75
2019-02-12T07:00:15.497Z,6.00
2019-02-12T07:03:14.326Z,6.35
2019-02-12T07:06:03.784Z,6.46
2019-02-12T07:08:47.431Z,6.37
2019-02-12T07:11:31.096Z,6.39
2019-02-12T07:14:05.694Z,5.94
2019-02-12T07:16:42.942Z,6.67
2019-02-12T07:19:50.045Z,6.76
2019-02-12T07:22:30.215Z,6.76
2019-02-12T07:25:07.453Z,5.97
2019-02-12T07:27:38.994Z,6.06
2019-02-12T07:30:36.223Z,6.02
2019-02-12T07:33:13.438Z,5.54
2019-02-12T07:36:05.142Z,5.26
2019-02-12T07:38:59.123Z,5.11
2019-02-12T07:41:33.464Z,4.89
2019-02-12T07:44:24.722Z,5.05
2019-02-12T07:47:02.221Z,4.91
2019-02-12T07:49:42.455Z,4.90
2019-02-12T07:52:22.803Z,4.94
2019-02-12T07:54:59.959Z,5.41
2019-02-12T07:57:54.061Z,5.22
2019-02-12T08:00:28.390Z,5.05
2019-02-12T08:03:11.591Z,4.82
2019-02-12T08:05:51.971Z,4.72
2019-02-12T08:08:41.899Z,4.47
2019-02-12T08:11:16.352Z,4.39
2019-02-12T08:14:12.335Z,4.45
2019-02-12T08:16:52.987Z,4.46
2019-02-12T08:19:42.829Z,4.31
2019-02-12T08:22:40.474Z,4.39
2019-02-12T08:25:14.597Z,4.71
2019-02-12T08:28:01.066Z,5.10
2019-02-12T08:30:33.752Z,4.76
2019-02-12T08:33:07.888Z,4.87
2019-02-12T08:35:57.295Z,4.83
2019-02-12T08:38:33.889Z,4.88
2019-02-12T08:41:22.173Z,4.95
2019-02-12T08:43:53.699Z,4.96
2019-02-12T08:46:30.776Z,4.89
2019-02-12T08:49:11.081Z,4.92
2019-02-12T08:51:58.163Z,4.94
2019-02-12T08:54:51.058Z,4.63
2019-02-12T08:57:41.179Z,4.63
2019-02-12T09:00:18.471Z,4.83
2019-02-12T09:02:50.042Z,4.91
2019-02-12T09:05:21.578Z,5.01
2019-02-12T09:07:56.002Z,4.65
2019-02-12T09:10:30.127Z,4.36
2019-02-12T09:13:23.073Z,4.37
2019-02-12T09:16:00.320Z,4.87
2019-02-12T09:18:47.158Z,4.84
2019-02-12T09:21:33.917Z,4.76
2019-02-12T09:24:35.961Z,4.74
2019-02-12T09:27:16.213Z,4.81
2019-02-12T09:29:56.796Z,4.75
2019-02-12T09:32:46.707Z,4.64
2019-02-12T09:35:21.019Z,4.62
2019-02-12T09:38:17.717Z,4.37
2019-02-12T09:40:55.111Z,4.40
2019-02-12T09:43:32.692Z,4.50
2019-02-12T09:46:07.410Z,4.68
2019-02-12T09:48:38.937Z,4.78
2019-02-12T09:51:10.514Z,4.67
2019-02-12T09:53:50.867Z,4.55
2019-02-12T09:56:31.096Z,4.51
2019-02-12T09:59:24.679Z,4.52
2019-02-12T10:02:17.604Z,4.58
2019-02-12T10:04:58.223Z,4.50
2019-02-12T10:07:29.863Z,4.67
2019-02-12T10:10:01.491Z,4.63
2019-02-12T10:12:38.884Z,4.62
2019-02-12T10:15:19.360Z,4.34
2019-02-12T10:17:56.844Z,4.33
2019-02-12T10:20:37.102Z,4.43
2019-02-12T10:23:36.870Z,4.43
2019-02-12T10:26:08.440Z,4.30
2019-02-12T10:29:15.150Z,4.27
2019-02-12T10:31:42.806Z,4.29
2019-02-12T10:34:11.732Z,4.18
2019-02-12T10:36:40.352Z,4.17
2019-02-12T10:39:10.220Z,4.36
2019-02-12T10:41:38.782Z,4.45
2019-02-12T10:44:07.410Z,4.47
2019-02-12T10:46:36.295Z,4.56
2019-02-12T10:49:04.911Z,4.65
2019-02-12T10:51:33.527Z,4.50
2019-02-12T10:54:02.225Z,4.68
2019-02-12T10:56:30.846Z,4.67
2019-02-12T10:58:59.494Z,4.66
2019-02-12T11:01:28.087Z,4.61
2019-02-12T11:03:56.704Z,4.69
2019-02-12T11:06:25.319Z,4.60
2019-02-12T11:08:54.234Z,4.69
2019-02-12T11:11:22.883Z,4.65
2019-02-12T11:13:51.501Z,4.79
2019-02-12T11:16:20.156Z,4.73
2019-02-12T11:18:48.772Z,4.82
2019-02-12T11:21:17.339Z,4.62
2019-02-12T11:23:46.112Z,4.64
2019-02-12T11:26:14.706Z,4.79
2019-02-12T11:28:43.298Z,4.95
2019-02-12T11:31:12.207Z,4.78
2019-02-12T11:33:40.752Z,4.64
2019-02-12T11:36:09.366Z,4.54
2019-02-12T11:38:38.106Z,4.58
2019-02-12T11:41:06.663Z,4.38
2019-02-12T11:43:35.426Z,4.32
2019-02-12T11:46:04.052Z,4.40
2019-02-12T11:48:32.617Z,4.21
2019-02-12T11:51:01.272Z,4.38
2019-02-12T11:53:29.827Z,4.55
2019-02-12T11:55:58.447Z,4.62
2019-02-12T11:58:27.045Z,4.67
2019-02-12T12:00:57.154Z,4.95
2019-02-12T12:03:25.708Z,4.80
2019-02-12T12:05:54.390Z,4.76
2019-02-12T12:08:22.944Z,4.51
2019-02-12T12:10:51.420Z,4.40
2019-02-12T12:13:20.006Z,4.24
2019-02-12T12:15:48.664Z,4.11
2019-02-12T12:18:17.290Z,4.03
2019-02-12T12:20:45.848Z,4.09
2019-02-12T12:23:14.465Z,4.21
2019-02-12T12:25:43.095Z,4.45
2019-02-12T12:28:11.686Z,4.26
2019-02-12T12:30:40.150Z,4.37
2019-02-12T12:33:08.723Z,4.19
2019-02-12T12:35:37.385Z,4.34
2019-02-12T12:38:05.933Z,4.18
2019-02-12T12:40:34.536Z,3.91
2019-02-12T12:43:03.167Z,3.76
2019-02-12T12:45:31.637Z,3.83
2019-02-12T12:48:00.218Z,3.86
2019-02-12T12:50:28.848Z,3.79
2019-02-12T12:52:57.579Z,3.91
2019-02-12T12:55:26.120Z,3.64
2019-02-12T12:57:54.751Z,3.56
2019-02-12T13:00:23.438Z,3.80
2019-02-12T13:02:51.978Z,3.81
2019-02-12T13:05:20.527Z,3.67
2019-02-12T13:07:49.087Z,3.72
2019-02-12T13:10:18.320Z,3.69
2019-02-12T13:12:47.190Z,3.87
2019-02-12T13:15:16.203Z,3.84
2019-02-12T13:17:44.766Z,4.05
2019-02-12T13:20:16.083Z,4.19
2019-02-12T13:22:44.638Z,4.39
2019-02-12T13:25:13.363Z,4.20
2019-02-12T13:27:42.017Z,4.30
2019-02-12T13:30:13.555Z,4.23
2019-02-12T13:32:42.126Z,4.24
2019-02-12T13:35:11.483Z,4.09
2019-02-12T13:37:40.022Z,4.08
2019-02-12T13:40:10.848Z,3.74
2019-02-12T13:42:39.719Z,3.75
2019-02-12T13:45:10.882Z,3.50
2019-02-12T13:47:39.424Z,3.24
2019-02-12T13:50:09.588Z,3.32
2019-02-12T13:52:38.133Z,3.38
2019-02-12T13:55:15.429Z,3.42
2019-02-12T13:57:39.028Z,3.38
2019-02-12T14:00:16.709Z,3.28
2019-02-12T14:02:45.561Z,3.08
2019-02-12T14:05:17.076Z,3.06
2019-02-12T14:07:45.622Z,3.01
2019-02-12T14:10:14.538Z,3.10
2019-02-12T14:12:43.122Z,3.03
2019-02-12T14:15:13.336Z,3.01
2019-02-12T14:17:41.993Z,3.10
2019-02-12T14:20:15.522Z,3.12
2019-02-12T14:22:44.066Z,3.13
2019-02-12T14:25:14.066Z,3.03
2019-02-12T14:27:42.606Z,3.09
2019-02-12T14:30:16.009Z,3.20
2019-02-12T14:32:44.834Z,3.07
2019-02-12T14:35:13.481Z,3.05
2019-02-12T14:37:42.185Z,3.22
2019-02-12T14:40:13.772Z,3.01
2019-02-12T14:42:42.406Z,2.91
2019-02-12T14:45:15.775Z,2.86
2019-02-12T14:47:51.639Z,2.75
2019-02-12T14:50:21.017Z,2.60
2019-02-12T14:52:49.658Z,2.53
2019-02-12T14:55:18.338Z,2.59
2019-02-12T14:57:46.893Z,2.49
2019-02-12T15:00:16.901Z,2.47
2019-02-12T15:02:45.557Z,2.42
2019-02-12T15:05:14.294Z,2.46
2019-02-12T15:07:42.920Z,2.43
2019-02-12T15:10:13.966Z,2.23
2019-02-12T15:12:42.626Z,2.23
2019-02-12T15:15:11.543Z,2.22
2019-02-12T15:17:40.440Z,2.18
2019-02-12T15:20:15.359Z,2.21
2019-02-12T15:22:43.908Z,2.16
2019-02-12T15:25:14.030Z,2.11
2019-02-12T15:27:42.586Z,2.08
2019-02-12T15:30:14.055Z,2.02
2019-02-12T15:32:42.895Z,1.97
2019-02-12T15:35:11.902Z,1.86
2019-02-12T15:37:40.540Z,1.81
2019-02-12T15:40:11.712Z,1.83
2019-02-12T15:42:40.274Z,1.88
2019-02-12T15:45:14.447Z,1.81
2019-02-12T15:47:43.045Z,1.79
2019-02-12T15:50:12.166Z,1.85
2019-02-12T15:52:40.730Z,1.81
2019-02-12T15:55:11.678Z,1.71
2019-02-12T15:57:42.861Z,1.67
2019-02-12T16:00:20.469Z,1.65
2019-02-12T16:02:48.725Z,1.64
2019-02-12T16:05:17.362Z,1.63
2019-02-12T16:07:47.494Z,1.59
2019-02-12T16:10:20.913Z,1.58
2019-02-12T16:12:51.588Z,1.56
2019-02-12T16:15:22.436Z,1.57
2019-02-12T16:17:50.843Z,1.59
2019-02-12T16:20:19.328Z,1.63
2019-02-12T16:22:47.919Z,1.52
2019-02-12T16:25:16.543Z,1.55
2019-02-12T16:27:45.087Z,1.52
2019-02-12T16:30:18.716Z,1.52
2019-02-12T16:32:47.275Z,1.50
2019-02-12T16:35:18.971Z,1.47
2019-02-12T16:37:47.841Z,1.40
2019-02-12T16:40:18.204Z,1.43
2019-02-12T16:42:46.821Z,1.45
2019-02-12T16:45:30.421Z,1.37
2019-02-12T16:48:04.778Z,1.37
2019-02-12T16:50:33.460Z,1.31
2019-02-12T16:53:02.143Z,1.30
2019-02-12T16:55:30.616Z,1.28
2019-02-12T16:57:59.454Z,1.28
2019-02-12T17:00:28.078Z,1.31
2019-02-12T17:02:56.642Z,1.29
2019-02-12T17:05:25.172Z,1.34
2019-02-12T17:07:53.727Z,1.32
2019-02-12T17:10:22.343Z,1.32
2019-02-12T17:12:51.028Z,1.27
2019-02-12T17:15:19.593Z,1.26
2019-02-12T17:17:48.156Z,1.32
2019-02-12T17:20:22.319Z,1.28
2019-02-12T17:22:50.878Z,1.27
2019-02-12T17:25:19.426Z,1.23
2019-02-12T17:27:48.214Z,1.25
2019-02-12T17:30:18.022Z,1.31
2019-02-12T17:32:46.732Z,1.36
2019-02-12T17:35:15.385Z,1.32
2019-02-12T17:37:44.005Z,1.31
2019-02-12T17:40:17.365Z,1.22
2019-02-12T17:42:46.026Z,1.20
2019-02-12T17:45:15.653Z,1.31
2019-02-12T17:47:44.292Z,1.27
2019-02-12T17:50:16.471Z,1.12
2019-02-12T17:52:45.030Z,1.15
2019-02-12T17:55:13.580Z,1.12
2019-02-12T17:57:42.219Z,1.07
2019-02-12T18:00:22.070Z,1.01
2019-02-12T18:02:50.719Z,0.95
2019-02-12T18:05:19.330Z,0.98
2019-02-12T18:07:47.898Z,0.95
2019-02-12T18:10:16.607Z,0.94
2019-02-12T18:12:45.165Z,0.96
2019-02-12T18:15:14.725Z,0.94
2019-02-12T18:17:43.300Z,0.96
2019-02-12T18:20:17.405Z,0.94
2019-02-12T18:22:46.026Z,0.94
2019-02-12T18:25:14.819Z,0.92
2019-02-12T18:27:43.459Z,0.89
2019-02-12T18:30:15.059Z,0.89
2019-02-12T18:32:43.991Z,0.87
2019-02-12T18:35:12.599Z,0.76
2019-02-12T18:37:41.213Z,0.72
2019-02-12T18:40:14.651Z,0.68
2019-02-12T18:42:43.213Z,0.63
2019-02-12T18:45:17.063Z,0.54
2019-02-12T18:47:45.935Z,0.46
2019-02-12T18:50:14.563Z,0.48
2019-02-12T18:52:43.289Z,0.46
2019-02-12T18:55:16.247Z,0.42
2019-02-12T18:57:44.866Z,0.51
2019-02-12T19:00:19.212Z,0.48
2019-02-12T19:02:48.271Z,0.52
2019-02-12T19:05:16.914Z,0.62
2019-02-12T19:07:45.485Z,0.62
2019-02-12T19:10:15.756Z,0.63
2019-02-12T19:12:44.425Z,0.60
2019-02-12T19:15:15.477Z,0.60
2019-02-12T19:17:46.237Z,0.64
2019-02-12T19:20:14.788Z,0.53
2019-02-12T19:22:43.424Z,0.47
2019-02-12T19:25:12.089Z,0.44
2019-02-12T19:27:40.649Z,0.43
2019-02-12T19:30:12.234Z,0.48
2019-02-12T19:32:41.054Z,0.44
2019-02-12T19:35:11.082Z,0.39
2019-02-12T19:37:39.706Z,0.30
2019-02-12T19:40:10.584Z,0.31
2019-02-12T19:42:39.216Z,0.26
2019-02-12T19:45:12.919Z,0.29
2019-02-12T19:47:41.516Z,0.28
2019-02-12T19:50:11.099Z,0.27
2019-02-12T19:52:39.652Z,0.22
2019-02-12T19:55:09.879Z,0.24
2019-02-12T19:57:38.444Z,0.23
2019-02-12T20:00:17.757Z,0.21
2019-02-12T20:02:46.311Z,0.22
2019-02-12T20:05:14.875Z,0.20
2019-02-12T20:07:43.459Z,0.18
2019-02-12T20:10:13.495Z,0.12
2019-02-12T20:12:42.053Z,0.11
2019-02-12T20:15:21.668Z,0.09
2019-02-12T20:17:50.289Z,0.04
2019-02-12T20:20:18.915Z,0.04
2019-02-12T20:22:47.585Z,0.10
2019-02-12T20:25:16.218Z,0.07
2019-02-12T20:27:44.763Z,0.06
2019-02-12T20:30:15.028Z,0.10
2019-02-12T20:32:43.589Z,0.02
2019-02-12T20:35:20.519Z,0.04
2019-02-12T20:37:49.138Z,0.07
2019-02-12T20:40:17.757Z,0.06
2019-02-12T20:42:46.410Z,0.07
2019-02-12T20:45:18.910Z,0.10
2019-02-12T20:47:47.540Z,0.11
2019-02-12T20:50:17.563Z,0.16
2019-02-12T20:52:46.119Z,0.12
2019-02-12T20:55:14.731Z,0.20
2019-02-12T20:57:43.612Z,0.15
2019-02-12T21:00:20.433Z,0.19
2019-02-12T21:02:49.114Z,0.16
2019-02-12T21:05:17.747Z,0.17
2019-02-12T21:07:46.372Z,0.19
2019-02-12T21:10:19.850Z,0.21
2019-02-12T21:12:48.401Z,0.13
2019-02-12T21:15:19.678Z,0.14
2019-02-12T21:17:48.333Z,0.10
2019-02-12T21:20:17.001Z,0.07
2019-02-12T21:22:45.618Z,0.06
2019-02-12T21:25:14.395Z,-0.02
2019-02-12T21:27:42.957Z,-0.01
2019-02-12T21:30:22.932Z,-0.09
2019-02-12T21:32:51.766Z,-0.10
2019-02-12T21:35:20.393Z,-0.14
2019-02-12T21:37:48.963Z,-0.13
2019-02-12T21:40:25.256Z,-0.09
2019-02-12T21:42:54.056Z,-0.12
2019-02-12T21:45:22.610Z,-0.09
2019-02-12T21:47:51.167Z,-0.11
2019-02-12T21:50:19.828Z,-0.05
2019-02-12T21:52:48.392Z,-0.06
2019-02-12T21:55:21.393Z,0.05
2019-02-12T21:57:50.053Z,-0.03
2019-02-12T22:00:22.261Z,-0.06
2019-02-12T22:02:50.829Z,-0.11
2019-02-12T22:05:19.691Z,-0.12
2019-02-12T22:07:48.247Z,-0.14
2019-02-12T22:10:22.438Z,-0.16
2019-02-12T22:12:51.091Z,-0.13
2019-02-12T22:15:19.722Z,-0.16
2019-02-12T22:17:48.276Z,-0.19
2019-02-12T22:20:21.391Z,-0.17
2019-02-12T22:22:49.952Z,-0.15
2019-02-12T22:25:18.581Z,-0.17
2019-02-12T22:27:47.378Z,-0.24
2019-02-12T22:30:25.749Z,-0.24
2019-02-12T22:32:54.579Z,-0.21
2019-02-12T22:35:23.211Z,-0.26
2019-02-12T22:37:51.764Z,-0.29
2019-02-12T22:40:20.439Z,-0.31
2019-02-12T22:42:48.987Z,-0.29
2019-02-12T22:45:23.371Z,-0.32
2019-02-12T22:47:52.028Z,-0.30
2019-02-12T22:50:20.749Z,-0.36
2019-02-12T22:52:49.375Z,-0.40
2019-02-12T22:55:18.030Z,-0.39
2019-02-12T22:57:49.345Z,-0.45
2019-02-12T23:00:39.835Z,-0.39
2019-02-12T23:03:08.953Z,-0.32
2019-02-12T23:05:37.579Z,-0.38
2019-02-12T23:08:06.251Z,-0.45
2019-02-12T23:10:34.743Z,-0.43
2019-02-12T23:13:03.308Z,-0.39
2019-02-12T23:15:32.039Z,-0.42
2019-02-12T23:18:00.604Z,-0.38
2019-02-12T23:20:29.229Z,-0.38
2019-02-12T23:22:57.907Z,-0.45
2019-02-12T23:25:26.388Z,-0.42
2019-02-12T23:27:57.699Z,-0.38
2019-02-12T23:30:25.481Z,-0.43
2019-02-12T23:32:54.036Z,-0.46
2019-02-12T23:35:22.515Z,-0.48
2019-02-12T23:37:51.106Z,-0.58
2019-02-12T23:40:19.721Z,-0.57
2019-02-12T23:42:48.345Z,-0.59
2019-02-12T23:45:17.130Z,-0.64
2019-02-12T23:47:45.675Z,-0.71
2019-02-12T23:50:14.309Z,-0.74
2019-02-12T23:52:42.922Z,-0.75
2019-02-12T23:55:11.419Z,-0.76
2019-02-12T23:57:39.967Z,-0.80
